createdAt,value
2022-09-28T00:01:20.938Z,59.95
2022-09-28T00:03:50.691Z,60.50
2022-09-28T00:06:20.473Z,60.70
2022-09-28T00:08:50.339Z,60.93
2022-09-28T00:11:19.090Z,61.22
2022-09-28T00:13:51.604Z,61.15
2022-09-28T00:16:21.568Z,60.94
2022-09-28T00:18:51.493Z,61.54
2022-09-28T00:21:24.545Z,61.57
2022-09-28T00:24:12.648Z,61.82
2022-09-28T00:26:41.359Z,62.15
2022-09-28T00:29:17.950Z,62.11
2022-09-28T00:31:45.791Z,62.38
2022-09-28T00:34:13.405Z,62.49
2022-09-28T00:36:44.431Z,62.90
2022-09-28T00:39:14.929Z,62.37
2022-09-28T00:41:42.719Z,62.22
2022-09-28T00:44:38.925Z,62.06
2022-09-28T00:47:17.798Z,62.29
2022-09-28T00:50:31.194Z,62.40
2022-09-28T00:53:13.276Z,62.70
2022-09-28T00:55:48.778Z,62.44
2022-09-28T00:58:25.364Z,62.76
2022-09-28T01:00:55.471Z,62.97
2022-09-28T01:03:22.878Z,63.07
2022-09-28T01:05:51.882Z,62.71
2022-09-28T01:08:21.982Z,62.80
2022-09-28T01:10:50.003Z,62.89
2022-09-28T01:13:21.862Z,63.13
2022-09-28T01:16:23.610Z,62.83
2022-09-28T01:19:10.516Z,62.86
2022-09-28T01:22:19.489Z,62.77
2022-09-28T01:24:49.002Z,62.75
2022-09-28T01:27:25.259Z,62.95
2022-09-28T01:30:02.016Z,62.85
2022-09-28T01:32:55.357Z,63.26
2022-09-28T01:35:37.182Z,63.33
2022-09-28T01:38:14.910Z,63.57
2022-09-28T01:40:42.754Z,63.61
2022-09-28T01:43:16.242Z,63.54
2022-09-28T01:45:54.672Z,64.02
2022-09-28T01:48:30.371Z,63.98
2022-09-28T01:51:02.799Z,63.87
2022-09-28T01:53:40.509Z,64.22
2022-09-28T01:56:28.457Z,64.20
2022-09-28T01:59:06.680Z,64.83
2022-09-28T02:01:41.050Z,64.46
2022-09-28T02:04:17.157Z,64.80
2022-09-28T02:06:55.663Z,64.27
2022-09-28T02:09:33.036Z,64.79
2022-09-28T02:12:10.225Z,64.75
2022-09-28T02:14:40.756Z,64.80
2022-09-28T02:17:09.889Z,64.65
2022-09-28T02:19:37.752Z,64.18
2022-09-28T02:22:25.322Z,63.58
2022-09-28T02:25:01.658Z,63.95
2022-09-28T02:27:34.491Z,63.37
2022-09-28T02:30:03.122Z,62.78
2022-09-28T02:32:35.487Z,62.57
2022-09-28T02:35:02.995Z,62.35
2022-09-28T02:37:30.344Z,62.03
2022-09-28T02:39:57.526Z,62.15
2022-09-28T02:42:34.003Z,62.25
2022-09-28T02:45:28.678Z,62.22
2022-09-28T02:48:06.698Z,62.40
2022-09-28T02:50:33.988Z,62.49
2022-09-28T02:53:37.200Z,62.42
2022-09-28T02:56:29.210Z,62.69
2022-09-28T02:59:08.362Z,62.77
2022-09-28T03:01:50.774Z,62.65
2022-09-28T03:04:34.697Z,62.69
2022-09-28T03:07:15.040Z,62.79
2022-09-28T03:09:54.560Z,62.33
2022-09-28T03:12:24.802Z,62.24
2022-09-28T03:15:14.280Z,62.29
2022-09-28T03:17:42.586Z,62.18
2022-09-28T03:20:10.856Z,61.90
2022-09-28T03:22:38.626Z,61.67
2022-09-28T03:25:08.023Z,61.34
2022-09-28T03:27:38.925Z,61.36
2022-09-28T03:30:08.235Z,61.28
2022-09-28T03:32:36.066Z,61.49
2022-09-28T03:35:06.527Z,60.92
2022-09-28T03:37:33.905Z,61.58
2022-09-28T03:40:01.494Z,61.30
2022-09-28T03:42:28.994Z,61.94
2022-09-28T03:44:56.981Z,62.23
2022-09-28T03:47:24.297Z,61.91
2022-09-28T03:49:51.426Z,62.27
2022-09-28T03:52:18.560Z,62.50
2022-09-28T03:54:49.090Z,62.64
2022-09-28T03:57:16.824Z,63.01
2022-09-28T03:59:44.420Z,63.49
2022-09-28T04:02:11.602Z,63.93
2022-09-28T04:04:38.839Z,63.66
2022-09-28T04:07:06.087Z,63.47
2022-09-28T04:09:33.330Z,63.72
2022-09-28T04:12:04.280Z,63.06
2022-09-28T04:14:32.933Z,63.29
2022-09-28T04:17:00.112Z,62.89
2022-09-28T04:19:28.682Z,63.37
2022-09-28T04:22:16.422Z,63.06
2022-09-28T04:24:43.873Z,62.46
2022-09-28T04:27:29.193Z,62.45
2022-09-28T04:29:56.447Z,62.32
2022-09-28T04:32:23.692Z,62.34
2022-09-28T04:34:52.062Z,62.70
2022-09-28T04:37:19.335Z,62.75
2022-09-28T04:39:48.613Z,62.51
2022-09-28T04:42:19.291Z,62.74
2022-09-28T04:44:49.101Z,62.26
2022-09-28T04:47:16.979Z,62.42
2022-09-28T04:49:59.337Z,62.15
2022-09-28T04:52:32.379Z,62.28
2022-09-28T04:54:59.559Z,61.77
2022-09-28T04:57:26.909Z,61.73
2022-09-28T04:59:55.126Z,61.01
2022-09-28T05:02:22.336Z,60.23
2022-09-28T05:05:18.914Z,58.80
2022-09-28T05:08:07.106Z,57.59
2022-09-28T05:10:35.102Z,56.32
2022-09-28T05:13:02.740Z,55.20
2022-09-28T05:15:31.247Z,53.29
2022-09-28T05:17:58.676Z,51.93
2022-09-28T05:20:42.056Z,50.79
2022-09-28T05:23:12.956Z,50.10
2022-09-28T05:25:42.959Z,48.72
2022-09-28T05:28:26.389Z,47.81
2022-09-28T05:31:17.305Z,47.50
2022-09-28T05:34:10.586Z,46.86
2022-09-28T05:36:40.259Z,45.58
2022-09-28T05:39:07.697Z,44.45
2022-09-28T05:41:34.933Z,43.23
2022-09-28T05:44:02.308Z,43.24
2022-09-28T05:46:30.703Z,42.25
2022-09-28T05:49:00.685Z,40.93
2022-09-28T05:51:28.501Z,40.22
2022-09-28T05:53:56.413Z,40.36
2022-09-28T05:56:26.085Z,39.99
2022-09-28T05:58:53.353Z,38.85
2022-09-28T06:01:22.922Z,38.63
2022-09-28T06:03:50.285Z,38.14
2022-09-28T06:06:19.955Z,38.11
2022-09-28T06:08:48.725Z,38.95
2022-09-28T06:11:36.244Z,39.98
2022-09-28T06:14:09.848Z,40.00
2022-09-28T06:16:40.477Z,39.88
2022-09-28T06:19:12.485Z,39.67
2022-09-28T06:21:59.661Z,39.50
2022-09-28T06:24:27.742Z,39.97
2022-09-28T06:26:54.811Z,39.62
2022-09-28T06:29:22.984Z,38.70
2022-09-28T06:31:50.370Z,38.92
2022-09-28T06:34:19.277Z,39.44
2022-09-28T06:36:46.601Z,39.80
2022-09-28T06:39:14.145Z,39.01
2022-09-28T06:41:42.039Z,38.40
2022-09-28T06:44:15.397Z,37.65
2022-09-28T06:47:01.488Z,36.42
2022-09-28T06:49:41.509Z,36.28
2022-09-28T06:55:33.081Z,35.04
2022-09-28T06:58:05.342Z,33.91
2022-09-28T07:00:36.421Z,34.48
2022-09-28T07:03:08.625Z,35.27
2022-09-28T07:05:54.299Z,36.09
2022-09-28T07:08:49.466Z,35.57
2022-09-28T07:12:00.484Z,36.61
2022-09-28T07:14:47.732Z,36.66
2022-09-28T07:17:16.803Z,36.77
2022-09-28T07:19:44.716Z,36.08
2022-09-28T07:22:18.732Z,35.96
2022-09-28T07:24:48.511Z,36.67
2022-09-28T07:27:44.397Z,36.82
2022-09-28T07:30:33.583Z,36.42
2022-09-28T07:33:06.532Z,36.81
2022-09-28T07:35:53.670Z,36.97
2022-09-28T07:38:23.029Z,36.67
2022-09-28T07:41:08.851Z,37.09
2022-09-28T07:43:41.893Z,38.80
2022-09-28T07:46:13.428Z,38.92
2022-09-28T07:48:49.733Z,39.13
2022-09-28T07:51:24.797Z,40.52
2022-09-28T07:54:10.597Z,41.53
2022-09-28T07:56:50.860Z,42.75
2022-09-28T07:59:40.477Z,43.86
2022-09-28T08:02:41.137Z,44.27
2022-09-28T08:05:10.226Z,44.56
2022-09-28T08:07:38.500Z,45.46
2022-09-28T08:10:09.246Z,46.48
2022-09-28T08:12:59.186Z,46.50
2022-09-28T08:15:38.420Z,47.02
2022-09-28T08:18:15.194Z,46.28
2022-09-28T08:21:01.655Z,46.03
2022-09-28T08:23:28.970Z,45.24
2022-09-28T08:25:56.053Z,45.55
2022-09-28T08:28:25.311Z,45.74
2022-09-28T08:31:01.752Z,46.08
2022-09-28T08:33:31.869Z,46.13
2022-09-28T08:36:17.286Z,46.03
2022-09-28T08:39:03.837Z,45.60
2022-09-28T08:42:02.928Z,44.89
2022-09-28T08:45:08.326Z,44.70
2022-09-28T08:48:39.845Z,44.89
2022-09-28T08:51:33.860Z,45.47
2022-09-28T08:54:24.776Z,45.04
2022-09-28T08:56:55.950Z,44.17
2022-09-28T08:59:36.392Z,44.08
2022-09-28T09:02:20.207Z,42.76
2022-09-28T09:04:49.471Z,43.80
2022-09-28T09:07:34.262Z,43.56
2022-09-28T09:10:34.306Z,43.18
2022-09-28T09:13:13.108Z,42.90
2022-09-28T09:16:12.160Z,43.43
2022-09-28T09:19:39.585Z,43.84
2022-09-28T09:22:27.951Z,43.25
2022-09-28T09:25:21.073Z,42.83
2022-09-28T09:28:23.344Z,42.63
2022-09-28T09:31:20.705Z,42.67
2022-09-28T09:34:09.355Z,42.62
2022-09-28T09:37:18.040Z,42.27
2022-09-28T09:40:30.665Z,41.90
2022-09-28T09:43:47.209Z,42.13
2022-09-28T09:47:08.434Z,42.09
2022-09-28T09:50:10.427Z,41.97
2022-09-28T09:52:55.144Z,41.10
2022-09-28T09:55:33.134Z,41.57
2022-09-28T09:58:21.937Z,41.46
2022-09-28T10:00:59.777Z,41.04
2022-09-28T10:03:48.887Z,41.33
2022-09-28T10:06:27.606Z,41.25
2022-09-28T10:09:05.564Z,40.50
2022-09-28T10:11:50.335Z,41.54
2022-09-28T10:14:22.996Z,41.75
2022-09-28T10:17:02.789Z,38.74
2022-09-28T10:19:48.480Z,39.32
2022-09-28T10:22:34.455Z,38.09
2022-09-28T10:25:12.967Z,37.59
2022-09-28T10:27:46.277Z,36.77
2022-09-28T10:30:19.297Z,37.52
2022-09-28T10:32:49.128Z,36.92
2022-09-28T10:35:29.972Z,37.35
2022-09-28T10:38:06.419Z,36.46
2022-09-28T10:40:58.736Z,36.77
2022-09-28T10:43:52.059Z,36.77
2022-09-28T10:46:24.435Z,37.44
2022-09-28T10:49:18.446Z,38.45
2022-09-28T10:51:54.997Z,38.16
2022-09-28T10:54:28.495Z,37.57
2022-09-28T10:56:59.321Z,38.14
2022-09-28T10:59:52.620Z,38.13
2022-09-28T11:02:40.362Z,38.61
2022-09-28T11:05:27.248Z,37.47
2022-09-28T11:08:07.499Z,36.60
2022-09-28T11:10:43.001Z,36.87
2022-09-28T11:13:14.773Z,36.67
2022-09-28T11:15:47.716Z,37.28
2022-09-28T11:18:31.720Z,38.18
2022-09-28T11:21:15.908Z,38.11
2022-09-28T11:24:08.827Z,39.03
2022-09-28T11:26:43.910Z,39.62
2022-09-28T11:29:46.349Z,39.95
2022-09-28T11:32:44.696Z,39.55
2022-09-28T11:35:32.284Z,40.33
2022-09-28T11:38:32.287Z,40.85
2022-09-28T11:41:37.703Z,39.85
2022-09-28T11:44:25.432Z,40.13
2022-09-28T11:47:10.248Z,40.31
2022-09-28T11:49:59.097Z,38.78
2022-09-28T11:52:48.882Z,38.71
2022-09-28T11:55:22.269Z,38.22
2022-09-28T11:57:57.720Z,37.98
2022-09-28T12:00:25.778Z,37.60
2022-09-28T12:03:18.310Z,36.58
2022-09-28T12:05:52.300Z,36.80
2022-09-28T12:08:27.806Z,36.78
2022-09-28T12:11:19.664Z,36.16
2022-09-28T12:14:15.728Z,36.94
2022-09-28T12:17:08.493Z,37.28
2022-09-28T12:20:03.302Z,36.64
2022-09-28T12:22:37.512Z,36.93
2022-09-28T12:25:10.641Z,37.15
2022-09-28T12:27:57.185Z,36.88
2022-09-28T12:30:29.315Z,37.60
2022-09-28T12:33:05.840Z,38.30
2022-09-28T12:35:57.922Z,37.60
2022-09-28T12:39:17.635Z,34.58
2022-09-28T12:41:53.205Z,33.65
2022-09-28T12:44:39.292Z,33.64
2022-09-28T12:47:24.914Z,34.05
2022-09-28T12:53:26.614Z,33.48
2022-09-28T12:56:04.217Z,33.59
2022-09-28T12:59:01.752Z,33.43
2022-09-28T13:01:40.939Z,34.01
2022-09-28T13:04:26.601Z,33.81
2022-09-28T13:07:03.519Z,33.23
2022-09-28T13:10:05.245Z,33.56
2022-09-28T13:13:05.245Z,34.09
2022-09-28T13:16:08.035Z,34.26
2022-09-28T13:18:45.694Z,34.41
2022-09-28T13:21:18.760Z,34.77
2022-09-28T13:23:48.939Z,34.95
2022-09-28T13:26:37.174Z,35.07
2022-09-28T13:29:19.880Z,35.31
2022-09-28T13:31:51.817Z,35.51
2022-09-28T13:34:22.870Z,35.81
2022-09-28T13:37:09.236Z,36.88
2022-09-28T13:39:45.643Z,36.95
2022-09-28T13:42:32.001Z,37.05
2022-09-28T13:45:23.333Z,36.40
2022-09-28T13:48:12.434Z,36.33
2022-09-28T13:51:03.211Z,36.46
2022-09-28T13:54:13.181Z,36.60
2022-09-28T13:57:01.720Z,36.62
2022-09-28T13:59:30.722Z,38.06
2022-09-28T14:02:14.264Z,41.35
2022-09-28T14:04:55.392Z,43.54
2022-09-28T14:07:45.566Z,43.92
2022-09-28T14:10:52.016Z,45.31
2022-09-28T14:13:40.992Z,45.90
2022-09-28T14:16:24.670Z,46.97
2022-09-28T14:19:01.561Z,46.72
2022-09-28T14:22:03.120Z,45.77
2022-09-28T14:24:39.985Z,45.15
2022-09-28T14:27:35.826Z,44.51
2022-09-28T14:30:28.647Z,44.72
2022-09-28T14:32:58.827Z,45.43
2022-09-28T14:35:39.661Z,46.71
2022-09-28T14:38:31.911Z,47.36
2022-09-28T14:41:11.668Z,49.06
2022-09-28T14:43:45.209Z,49.65
2022-09-28T14:46:15.500Z,49.07
2022-09-28T14:48:53.730Z,50.39
2022-09-28T14:51:31.226Z,50.71
2022-09-28T14:54:03.361Z,50.84
2022-09-28T14:56:40.179Z,51.07
2022-09-28T14:59:17.568Z,50.11
2022-09-28T15:01:54.086Z,51.09
2022-09-28T15:04:23.764Z,51.49
2022-09-28T15:06:52.499Z,50.30
2022-09-28T15:09:28.919Z,49.92
2022-09-28T15:12:25.659Z,50.94
2022-09-28T15:15:01.610Z,52.00
2022-09-28T15:17:39.231Z,52.56
2022-09-28T15:20:26.325Z,53.04
2022-09-28T15:22:58.995Z,54.59
2022-09-28T15:25:29.013Z,55.41
2022-09-28T15:28:08.313Z,56.66
2022-09-28T15:30:36.785Z,56.06
2022-09-28T15:33:24.016Z,55.93
2022-09-28T15:36:01.943Z,56.73
2022-09-28T15:38:31.495Z,56.55
2022-09-28T15:41:02.903Z,56.77
2022-09-28T15:43:37.403Z,56.77
2022-09-28T15:46:18.603Z,58.68
2022-09-28T15:48:53.832Z,60.48
2022-09-28T15:51:22.477Z,61.29
2022-09-28T15:54:03.010Z,60.53
2022-09-28T15:56:31.269Z,60.83
2022-09-28T15:59:23.471Z,60.88
2022-09-28T16:02:09.877Z,61.40
2022-09-28T16:04:55.438Z,62.53
2022-09-28T16:07:55.840Z,64.04
2022-09-28T16:10:34.633Z,66.45
2022-09-28T16:13:15.723Z,67.09
2022-09-28T16:15:43.335Z,66.21
2022-09-28T16:18:20.471Z,64.98
2022-09-28T16:20:51.188Z,65.01
2022-09-28T16:23:31.362Z,65.42
2022-09-28T16:26:02.322Z,65.08
2022-09-28T16:28:45.971Z,66.47
2022-09-28T16:31:13.331Z,67.92
2022-09-28T16:33:46.946Z,67.80
2022-09-28T16:36:17.396Z,66.87
2022-09-28T16:38:45.781Z,65.55
2022-09-28T16:41:15.459Z,66.33
2022-09-28T16:43:42.614Z,67.13
2022-09-28T16:46:13.473Z,67.56
2022-09-28T16:48:49.012Z,66.68
2022-09-28T16:51:20.998Z,69.10
2022-09-28T16:54:07.305Z,70.01
2022-09-28T16:56:36.623Z,70.69
2022-09-28T16:59:04.890Z,69.61
2022-09-28T17:01:32.284Z,69.67
2022-09-28T17:03:59.468Z,69.36
2022-09-28T17:06:27.640Z,69.75
2022-09-28T17:08:58.601Z,69.41
2022-09-28T17:11:25.865Z,69.21
2022-09-28T17:13:57.025Z,69.40
2022-09-28T17:16:49.740Z,68.99
2022-09-28T17:19:24.962Z,68.49
2022-09-28T17:21:53.380Z,68.90
2022-09-28T17:24:21.144Z,68.78
2022-09-28T17:26:51.179Z,68.13
2022-09-28T17:29:19.311Z,68.49
2022-09-28T17:31:47.586Z,67.99
2022-09-28T17:34:20.156Z,68.01
2022-09-28T17:36:48.716Z,68.48
2022-09-28T17:39:22.182Z,68.45
2022-09-28T17:41:49.564Z,68.18
2022-09-28T17:44:16.845Z,68.66
2022-09-28T17:46:48.735Z,67.44
2022-09-28T17:49:17.558Z,66.95
2022-09-28T17:51:46.235Z,67.32
2022-09-28T17:54:13.894Z,67.55
2022-09-28T17:56:42.590Z,67.67
2022-09-28T17:59:19.179Z,68.01
2022-09-28T18:01:46.471Z,67.53
2022-09-28T18:04:50.234Z,67.70
2022-09-28T18:07:10.371Z,68.05
2022-09-28T18:09:37.615Z,68.00
2022-09-28T18:12:05.455Z,68.16
2022-09-28T18:14:32.598Z,68.34
2022-09-28T18:16:59.647Z,68.19
2022-09-28T18:19:31.778Z,68.67
2022-09-28T18:21:59.659Z,68.63
2022-09-28T18:24:26.814Z,68.52
2022-09-28T18:26:54.089Z,68.79
2022-09-28T18:29:21.109Z,69.15
2022-09-28T18:31:49.031Z,68.94
2022-09-28T18:34:16.288Z,68.96
2022-09-28T18:36:43.504Z,68.89
2022-09-28T18:39:10.590Z,69.63
2022-09-28T18:41:37.716Z,70.72
2022-09-28T18:44:04.926Z,71.13
2022-09-28T18:46:36.495Z,71.45
2022-09-28T18:49:04.847Z,71.24
2022-09-28T18:51:32.006Z,72.05
2022-09-28T18:54:02.267Z,72.24
2022-09-28T18:56:29.444Z,72.65
2022-09-28T18:58:58.560Z,72.57
2022-09-28T19:01:31.070Z,72.57
2022-09-28T19:04:00.799Z,72.38
2022-09-28T19:06:28.666Z,72.30
2022-09-28T19:08:56.464Z,71.86
2022-09-28T19:11:24.861Z,72.06
2022-09-28T19:13:53.726Z,71.83
2022-09-28T19:16:24.327Z,71.78
2022-09-28T19:18:53.884Z,71.05
2022-09-28T19:21:21.580Z,70.21
2022-09-28T19:23:50.156Z,69.38
2022-09-28T19:26:28.089Z,64.58
2022-09-28T19:28:59.151Z,63.43
2022-09-28T19:31:27.339Z,63.14
2022-09-28T19:33:54.599Z,61.60
2022-09-28T19:36:24.448Z,61.04
2022-09-28T19:38:55.768Z,59.77
2022-09-28T19:41:43.591Z,59.93
2022-09-28T19:44:24.894Z,59.82
2022-09-28T19:47:00.327Z,59.27
2022-09-28T19:49:28.297Z,59.01
2022-09-28T19:52:12.039Z,59.20
2022-09-28T19:54:41.772Z,58.77
2022-09-28T19:57:09.122Z,58.54
2022-09-28T19:59:37.582Z,58.46
2022-09-28T20:02:08.005Z,58.62
2022-09-28T20:04:35.334Z,59.14
2022-09-28T20:07:03.392Z,59.56
2022-09-28T20:09:30.619Z,59.70
2022-09-28T20:11:57.788Z,60.30
2022-09-28T20:14:26.429Z,60.66
2022-09-28T20:16:58.001Z,60.99
2022-09-28T20:19:25.094Z,60.86
2022-09-28T20:21:52.531Z,60.33
2022-09-28T20:24:19.620Z,60.51
2022-09-28T20:26:46.915Z,60.34
2022-09-28T20:29:14.207Z,60.39
2022-09-28T20:31:42.808Z,60.50
2022-09-28T20:34:10.283Z,60.42
2022-09-28T20:36:37.396Z,61.21
2022-09-28T20:39:05.023Z,61.75
2022-09-28T20:41:36.955Z,61.99
2022-09-28T20:44:06.530Z,62.26
2022-09-28T20:46:35.850Z,62.10
2022-09-28T20:49:05.069Z,62.10
2022-09-28T20:51:32.794Z,61.95
2022-09-28T20:54:00.147Z,61.67
2022-09-28T20:56:37.882Z,61.78
2022-09-28T20:59:08.261Z,61.74
2022-09-28T21:01:35.976Z,62.13
2022-09-28T21:04:05.148Z,62.16
2022-09-28T21:06:35.044Z,61.80
2022-09-28T21:09:02.941Z,61.80
2022-09-28T21:11:30.550Z,61.77
2022-09-28T21:14:00.041Z,61.69
2022-09-28T21:16:29.888Z,61.92
2022-09-28T21:18:57.500Z,62.11
2022-09-28T21:21:25.386Z,62.20
2022-09-28T21:23:57.023Z,62.18
2022-09-28T21:26:27.251Z,62.44
2022-09-28T21:28:55.842Z,62.84
2022-09-28T21:31:28.811Z,62.79
2022-09-28T21:33:58.015Z,62.90
2022-09-28T21:36:26.241Z,62.99
2022-09-28T21:38:55.345Z,62.92
2022-09-28T21:41:23.055Z,63.18
2022-09-28T21:43:50.313Z,63.38
2022-09-28T21:46:17.882Z,63.10
2022-09-28T21:48:45.200Z,62.97
2022-09-28T21:51:15.806Z,63.10
2022-09-28T21:53:43.239Z,62.75
2022-09-28T21:56:13.025Z,62.36
2022-09-28T21:58:40.945Z,62.76
2022-09-28T22:01:15.733Z,62.26
2022-09-28T22:03:45.096Z,61.91
2022-09-28T22:06:12.526Z,61.81
2022-09-28T22:08:40.248Z,61.44
2022-09-28T22:11:08.946Z,61.44
2022-09-28T22:13:46.642Z,61.20
2022-09-28T22:16:16.047Z,61.21
2022-09-28T22:18:44.021Z,61.09
2022-09-28T22:21:15.262Z,60.81
2022-09-28T22:23:43.023Z,60.55
2022-09-28T22:26:22.891Z,60.48
2022-09-28T22:28:55.806Z,60.65
2022-09-28T22:31:25.663Z,61.11
2022-09-28T22:33:53.371Z,61.50
2022-09-28T22:36:21.257Z,61.81
2022-09-28T22:38:49.161Z,62.03
2022-09-28T22:41:18.928Z,61.88
2022-09-28T22:43:46.184Z,62.20
2022-09-28T22:46:16.867Z,62.18
2022-09-28T22:48:48.901Z,62.04
2022-09-28T22:51:16.282Z,61.79
2022-09-28T22:53:43.989Z,62.10
2022-09-28T22:56:15.962Z,61.91
2022-09-28T22:58:45.590Z,62.10
2022-09-28T23:01:14.194Z,61.84
2022-09-28T23:03:42.742Z,62.10
2022-09-28T23:06:11.070Z,62.15
2022-09-28T23:08:39.345Z,62.29
2022-09-28T23:11:06.964Z,62.37
2022-09-28T23:13:35.301Z,62.75
2022-09-28T23:16:07.418Z,62.49
2022-09-28T23:18:37.021Z,62.49
2022-09-28T23:21:06.620Z,62.70
2022-09-28T23:23:34.560Z,62.74
2022-09-28T23:26:09.921Z,62.67
2022-09-28T23:28:37.220Z,62.26
2022-09-28T23:31:20.730Z,62.40
2022-09-28T23:33:48.380Z,62.61
2022-09-28T23:36:16.405Z,62.55
2022-09-28T23:38:44.105Z,62.33
2022-09-28T23:41:11.627Z,62.31
2022-09-28T23:43:38.864Z,62.42
2022-09-28T23:46:06.585Z,62.31
2022-09-28T23:48:34.643Z,62.43
2022-09-28T23:51:02.103Z,62.42
2022-09-28T23:53:29.571Z,62.53
2022-09-28T23:55:56.687Z,62.65
2022-09-28T23:58:24.415Z,62.83
